sensor_id;sensor_type;location;lat;lon;timestamp;pressure;altitude;pressure_sealevel;temperature;humidity
39309;BME280;26019;47.510;19.122;2023-02-13T00:03:10;102346.19;;;-1.30;100.00
39309;BME280;26019;47.510;19.122;2023-02-13T00:13:14;102359.00;;;-1.29;100.00
39309;BME280;26019;47.510;19.122;2023-02-13T00:23:16;102369.69;;;-1.55;100.00
39309;BME280;26019;47.510;19.122;2023-02-13T00:33:18;102366.78;;;-1.72;100.00
39309;BME280;26019;47.510;19.122;2023-02-13T00:43:20;102361.84;;;-1.81;100.00
39309;BME280;26019;47.510;19.122;2023-02-13T00:53:23;102354.88;;;-1.73;100.00
39309;BME280;26019;47.510;19.122;2023-02-13T01:03:26;102345.53;;;-1.84;100.00
39309;BME280;26019;47.510;19.122;2023-02-13T01:13:28;102349.56;;;-1.76;100.00
39309;BME280;26019;47.510;19.122;2023-02-13T01:23:36;102341.53;;;-1.92;100.00
39309;BME280;26019;47.510;19.122;2023-02-13T01:33:44;102340.34;;;-2.08;100.00
39309;BME280;26019;47.510;19.122;2023-02-13T01:43:57;102340.88;;;-2.12;100.00
39309;BME280;26019;47.510;19.122;2023-02-13T01:54:16;102337.84;;;-2.18;100.00
39309;BME280;26019;47.510;19.122;2023-02-13T02:04:29;102328.50;;;-2.30;100.00
39309;BME280;26019;47.510;19.122;2023-02-13T02:14:32;102335.13;;;-2.32;100.00
39309;BME280;26019;47.510;19.122;2023-02-13T02:24:53;102334.75;;;-2.36;100.00
39309;BME280;26019;47.510;19.122;2023-02-13T02:35:12;102338.22;;;-2.57;100.00
39309;BME280;26019;47.510;19.122;2023-02-13T02:55:42;102331.56;;;-2.66;100.00
39309;BME280;26019;47.510;19.122;2023-02-13T03:05:48;102323.84;;;-2.68;100.00
39309;BME280;26019;47.510;19.122;2023-02-13T03:16:23;102333.97;;;-2.78;100.00
39309;BME280;26019;47.510;19.122;2023-02-13T03:27:00;102338.78;;;-2.71;100.00
39309;BME280;26019;47.510;19.122;2023-02-13T03:37:09;102318.53;;;-2.81;100.00
39309;BME280;26019;47.510;19.122;2023-02-13T03:47:34;102308.31;;;-2.83;100.00
39309;BME280;26019;47.510;19.122;2023-02-13T03:57:40;102322.50;;;-2.95;100.00
39309;BME280;26019;47.510;19.122;2023-02-13T04:08:04;102310.75;;;-3.05;100.00
39309;BME280;26019;47.510;19.122;2023-02-13T04:18:20;102323.63;;;-2.92;100.00
39309;BME280;26019;47.510;19.122;2023-02-13T04:28:28;102323.38;;;-2.95;100.00
39309;BME280;26019;47.510;19.122;2023-02-13T04:38:31;102307.66;;;-2.91;100.00
39309;BME280;26019;47.510;19.122;2023-02-13T04:48:33;102299.13;;;-3.13;100.00
39309;BME280;26019;47.510;19.122;2023-02-13T04:58:36;102289.66;;;-3.16;100.00
39309;BME280;26019;47.510;19.122;2023-02-13T05:08:38;102291.00;;;-3.20;100.00
39309;BME280;26019;47.510;19.122;2023-02-13T05:18:41;102285.22;;;-3.39;100.00
39309;BME280;26019;47.510;19.122;2023-02-13T05:28:43;102276.22;;;-3.46;100.00
39309;BME280;26019;47.510;19.122;2023-02-13T05:39:05;102282.16;;;-3.25;100.00
39309;BME280;26019;47.510;19.122;2023-02-13T05:49:09;102286.75;;;-3.41;100.00
39309;BME280;26019;47.510;19.122;2023-02-13T05:59:14;102293.31;;;-3.33;100.00
39309;BME280;26019;47.510;19.122;2023-02-13T06:09:16;102308.84;;;-3.08;100.00
39309;BME280;26019;47.510;19.122;2023-02-13T06:19:19;102332.47;;;-2.97;100.00
39309;BME280;26019;47.510;19.122;2023-02-13T06:29:21;102335.50;;;-2.70;100.00
39309;BME280;26019;47.510;19.122;2023-02-13T06:39:23;102331.78;;;-2.63;100.00
39309;BME280;26019;47.510;19.122;2023-02-13T06:49:28;102335.75;;;-2.67;100.00
39309;BME280;26019;47.510;19.122;2023-02-13T06:59:31;102335.91;;;-2.33;100.00
39309;BME280;26019;47.510;19.122;2023-02-13T07:09:34;102345.81;;;-1.91;100.00
39309;BME280;26019;47.510;19.122;2023-02-13T07:19:36;102353.97;;;-1.51;100.00
39309;BME280;26019;47.510;19.122;2023-02-13T07:29:39;102353.44;;;-1.13;100.00
39309;BME280;26019;47.510;19.122;2023-02-13T07:39:42;102348.94;;;-0.81;100.00
39309;BME280;26019;47.510;19.122;2023-02-13T07:49:44;102362.22;;;-0.38;100.00
39309;BME280;26019;47.510;19.122;2023-02-13T07:59:46;102367.66;;;0.04;100.00
39309;BME280;26019;47.510;19.122;2023-02-13T08:09:48;102364.94;;;0.89;100.00
39309;BME280;26019;47.510;19.122;2023-02-13T08:20:09;102353.81;;;1.81;100.00
39309;BME280;26019;47.510;19.122;2023-02-13T08:30:11;102349.59;;;2.67;100.00
39309;BME280;26019;47.510;19.122;2023-02-13T08:40:14;102363.72;;;3.82;90.41
39309;BME280;26019;47.510;19.122;2023-02-13T08:50:16;102353.84;;;4.71;74.38
39309;BME280;26019;47.510;19.122;2023-02-13T09:00:20;102350.88;;;5.32;67.68
39309;BME280;26019;47.510;19.122;2023-02-13T09:10:23;102343.84;;;6.40;61.81
39309;BME280;26019;47.510;19.122;2023-02-13T09:20:32;102352.81;;;7.12;57.03
39309;BME280;26019;47.510;19.122;2023-02-13T09:30:38;102352.25;;;7.86;53.17
39309;BME280;26019;47.510;19.122;2023-02-13T09:50:42;102340.53;;;8.91;48.52
39309;BME280;26019;47.510;19.122;2023-02-13T10:00:47;102327.94;;;9.28;48.64
39309;BME280;26019;47.510;19.122;2023-02-13T10:21:02;102307.25;;;11.95;42.33
39309;BME280;26019;47.510;19.122;2023-02-13T10:31:12;102298.75;;;13.01;39.98
39309;BME280;26019;47.510;19.122;2023-02-13T10:41:23;102281.97;;;14.03;38.04
39309;BME280;26019;47.510;19.122;2023-02-13T10:51:32;102280.59;;;15.68;34.21
39309;BME280;26019;47.510;19.122;2023-02-13T11:11:56;102245.97;;;16.16;34.72
39309;BME280;26019;47.510;19.122;2023-02-13T11:22:11;102221.16;;;18.04;30.58
39309;BME280;26019;47.510;19.122;2023-02-13T11:42:35;102200.28;;;17.89;30.32
39309;BME280;26019;47.510;19.122;2023-02-13T11:52:37;102190.56;;;19.08;28.62
39309;BME280;26019;47.510;19.122;2023-02-13T12:02:46;102200.56;;;18.65;28.35
39309;BME280;26019;47.510;19.122;2023-02-13T12:12:55;102179.00;;;19.21;27.57
39309;BME280;26019;47.510;19.122;2023-02-13T12:23:06;102177.34;;;21.27;24.68
39309;BME280;26019;47.510;19.122;2023-02-13T12:53:50;102115.00;;;21.34;24.12
39309;BME280;26019;47.510;19.122;2023-02-13T13:24:46;102107.56;;;16.95;29.74
39309;BME280;26019;47.510;19.122;2023-02-13T13:34:52;102098.19;;;24.18;22.45
39309;BME280;26019;47.510;19.122;2023-02-13T14:06:04;102086.75;;;18.16;29.56
39309;BME280;26019;47.510;19.122;2023-02-13T14:16:09;102092.97;;;18.86;29.66
39309;BME280;26019;47.510;19.122;2023-02-13T14:26:33;102097.19;;;15.24;34.94
39309;BME280;26019;47.510;19.122;2023-02-13T14:37:12;102098.13;;;15.42;35.82
39309;BME280;26019;47.510;19.122;2023-02-13T14:47:29;102101.94;;;14.34;39.57
39309;BME280;26019;47.510;19.122;2023-02-13T14:57:41;102096.44;;;15.64;36.71
39309;BME280;26019;47.510;19.122;2023-02-13T15:07:47;102089.31;;;9.76;50.29
39309;BME280;26019;47.510;19.122;2023-02-13T15:18:10;102096.38;;;8.60;60.45
39309;BME280;26019;47.510;19.122;2023-02-13T15:28:19;102105.78;;;8.04;66.04
39309;BME280;26019;47.510;19.122;2023-02-13T15:38:26;102100.31;;;7.45;72.56
39309;BME280;26019;47.510;19.122;2023-02-13T15:48:31;102101.66;;;7.11;78.92
39309;BME280;26019;47.510;19.122;2023-02-13T15:58:37;102100.09;;;6.92;81.20
39309;BME280;26019;47.510;19.122;2023-02-13T16:08:43;102095.13;;;6.73;85.98
39309;BME280;26019;47.510;19.122;2023-02-13T16:18:46;102100.63;;;6.60;87.56
39309;BME280;26019;47.510;19.122;2023-02-13T16:28:56;102095.91;;;6.27;89.68
39309;BME280;26019;47.510;19.122;2023-02-13T16:39:09;102085.19;;;5.95;92.74
39309;BME280;26019;47.510;19.122;2023-02-13T16:49:17;102085.88;;;5.71;96.53
39309;BME280;26019;47.510;19.122;2023-02-13T16:59:31;102092.63;;;5.69;100.00
39309;BME280;26019;47.510;19.122;2023-02-13T17:09:36;102076.66;;;5.75;98.16
39309;BME280;26019;47.510;19.122;2023-02-13T17:19:40;102050.88;;;5.72;99.54
39309;BME280;26019;47.510;19.122;2023-02-13T17:29:44;102066.00;;;5.65;97.06
39309;BME280;26019;47.510;19.122;2023-02-13T17:39:57;102048.22;;;5.70;97.81
39309;BME280;26019;47.510;19.122;2023-02-13T17:50:06;102044.97;;;5.74;96.49
39309;BME280;26019;47.510;19.122;2023-02-13T18:00:11;102024.78;;;5.41;100.00
39309;BME280;26019;47.510;19.122;2023-02-13T18:10:18;102022.75;;;5.13;100.00
39309;BME280;26019;47.510;19.122;2023-02-13T18:20:22;102017.34;;;4.69;100.00
39309;BME280;26019;47.510;19.122;2023-02-13T18:30:32;102013.53;;;4.41;100.00
39309;BME280;26019;47.510;19.122;2023-02-13T18:40:38;102012.69;;;4.04;100.00
39309;BME280;26019;47.510;19.122;2023-02-13T18:50:45;101997.75;;;3.77;100.00
39309;BME280;26019;47.510;19.122;2023-02-13T19:00:48;101999.34;;;3.57;100.00
39309;BME280;26019;47.510;19.122;2023-02-13T19:10:51;101983.31;;;3.26;100.00
39309;BME280;26019;47.510;19.122;2023-02-13T19:21:00;102003.94;;;3.13;100.00
39309;BME280;26019;47.510;19.122;2023-02-13T19:31:11;101997.00;;;3.10;100.00
39309;BME280;26019;47.510;19.122;2023-02-13T19:41:20;101995.06;;;3.06;100.00
39309;BME280;26019;47.510;19.122;2023-02-13T19:51:29;101988.97;;;3.37;100.00
39309;BME280;26019;47.510;19.122;2023-02-13T20:01:32;101984.53;;;3.51;100.00
39309;BME280;26019;47.510;19.122;2023-02-13T20:11:38;101969.84;;;3.29;100.00
39309;BME280;26019;47.510;19.122;2023-02-13T20:21:42;101975.38;;;3.04;100.00
39309;BME280;26019;47.510;19.122;2023-02-13T20:31:45;101957.31;;;3.01;100.00
39309;BME280;26019;47.510;19.122;2023-02-13T20:41:48;101970.19;;;2.86;100.00
39309;BME280;26019;47.510;19.122;2023-02-13T20:51:51;101963.78;;;2.61;100.00
39309;BME280;26019;47.510;19.122;2023-02-13T21:01:59;101966.47;;;2.47;100.00
39309;BME280;26019;47.510;19.122;2023-02-13T21:12:04;101960.06;;;2.39;100.00
39309;BME280;26019;47.510;19.122;2023-02-13T21:22:06;101965.81;;;2.35;100.00
39309;BME280;26019;47.510;19.122;2023-02-13T21:32:14;101963.41;;;2.21;100.00
39309;BME280;26019;47.510;19.122;2023-02-13T21:42:18;101963.63;;;2.26;100.00
39309;BME280;26019;47.510;19.122;2023-02-13T21:52:20;101983.97;;;2.24;100.00
39309;BME280;26019;47.510;19.122;2023-02-13T22:02:22;101989.81;;;2.07;100.00
39309;BME280;26019;47.510;19.122;2023-02-13T22:12:24;101986.28;;;2.05;100.00
39309;BME280;26019;47.510;19.122;2023-02-13T22:22:26;101965.50;;;1.82;100.00
39309;BME280;26019;47.510;19.122;2023-02-13T22:32:28;101973.75;;;1.78;100.00
39309;BME280;26019;47.510;19.122;2023-02-13T22:42:30;101968.22;;;1.85;100.00
39309;BME280;26019;47.510;19.122;2023-02-13T22:52:32;101959.78;;;1.71;100.00
39309;BME280;26019;47.510;19.122;2023-02-13T23:02:35;101951.88;;;1.37;100.00
39309;BME280;26019;47.510;19.122;2023-02-13T23:12:37;101959.06;;;1.29;100.00
39309;BME280;26019;47.510;19.122;2023-02-13T23:22:46;101973.03;;;1.21;100.00
39309;BME280;26019;47.510;19.122;2023-02-13T23:32:47;101942.91;;;1.13;100.00
39309;BME280;26019;47.510;19.122;2023-02-13T23:42:51;101932.00;;;1.01;100.00
39309;BME280;26019;47.510;19.122;2023-02-13T23:52:53;101925.72;;;0.81;100.00
